Time;durP1;ratioP1;P1;durP2;ratioP2;P2;SDS_P1;SDS_P2;PMS_P1;PMS_P2;Temp;Humidity;BMP_temperature;BMP_pressure;BME280_temperature;BME280_humidity;BME280_pressure;Samples;Min_cycle;Max_cycle;Signal;HPM_P1;HPM_P2
2021/06/05 00:00:41;;;;;;;16.90;8.48;;;;;;;;;;5042379;28;20029;-42
2021/06/05 00:03:07;;;;;;;12.15;5.35;;;;;;;;;;5042360;28;20025;-43
2021/06/05 00:05:42;;;;;;;11.02;6.18;;;;;;;;;;5055357;28;20376;-42
2021/06/05 00:08:09;;;;;;;14.95;6.57;;;;;;;;;;5072610;28;20120;-43
2021/06/05 00:10:40;;;;;;;12.30;6.50;;;;;;;;;;5054753;28;20476;-44
2021/06/05 00:13:10;;;;;;;15.32;6.32;;;;;;;;;;5072962;28;20048;-42
2021/06/05 00:15:39;;;;;;;15.85;6.97;;;;;;;;;;5072900;28;20025;-43
2021/06/05 00:18:05;;;;;;;13.75;6.53;;;;;;;;;;5072987;28;20554;-43
2021/06/05 00:20:32;;;;;;;8.77;6.10;;;;;;;;;;5072566;28;20119;-41
2021/06/05 00:22:59;;;;;;;14.48;7.80;;;;;;;;;;5072570;28;20418;-44
2021/06/05 00:25:26;;;;;;;18.50;7.18;;;;;;;;;;5072743;28;20021;-43
2021/06/05 00:27:52;;;;;;;15.82;6.20;;;;;;;;;;5072776;28;20021;-42
2021/06/05 00:30:18;;;;;;;15.98;8.60;;;;;;;;;;5072689;28;20488;-43
2021/06/05 00:32:44;;;;;;;22.02;7.45;;;;;;;;;;5072844;28;20025;-44
2021/06/05 00:35:10;;;;;;;13.90;6.72;;;;;;;;;;5072802;28;20052;-43
2021/06/05 00:37:37;;;;;;;10.65;6.38;;;;;;;;;;5072673;28;20477;-42
2021/06/05 00:40:03;;;;;;;12.80;6.30;;;;;;;;;;5072714;28;20059;-42
2021/06/05 00:42:29;;;;;;;18.48;6.57;;;;;;;;;;5072697;28;20029;-43
2021/06/05 00:44:55;;;;;;;16.75;6.22;;;;;;;;;;5072732;28;20045;-43
2021/06/05 00:47:22;;;;;;;13.13;7.07;;;;;;;;;;5072503;28;20031;-43
2021/06/05 00:49:48;;;;;;;15.65;6.68;;;;;;;;;;5073964;28;20047;-43
2021/06/05 00:52:17;;;;;;;11.60;6.60;;;;;;;;;;5075953;28;20482;-43
2021/06/05 00:54:47;;;;;;;11.38;6.78;;;;;;;;;;5076264;28;20024;-42
2021/06/05 00:57:13;;;;;;;15.85;7.05;;;;;;;;;;5076246;28;20350;-43
2021/06/05 00:59:39;;;;;;;14.25;6.40;;;;;;;;;;5076194;28;20487;-43
2021/06/05 01:02:06;;;;;;;14.18;5.53;;;;;;;;;;5075981;28;20469;-42
2021/06/05 01:04:32;;;;;;;11.18;6.68;;;;;;;;;;5076032;28;20436;-43
2021/06/05 01:07:07;;;;;;;14.32;6.05;;;;;;;;;;5075927;28;20056;-42
2021/06/05 01:09:57;;;;;;;8.57;6.03;;;;;;;;;;5075464;28;20056;-40
2021/06/05 01:12:32;;;;;;;12.75;5.95;;;;;;;;;;5075735;28;20103;-43
2021/06/05 01:15:31;;;;;;;10.35;6.45;;;;;;;;;;5075728;28;20028;-43
2021/06/05 01:18:01;;;;;;;14.63;6.25;;;;;;;;;;5012731;28;20081;-43
2021/06/05 01:20:27;;;;;;;9.75;6.43;;;;;;;;;;5013812;28;20042;-43
2021/06/05 01:23:11;;;;;;;14.30;6.53;;;;;;;;;;5013874;28;20036;-44
2021/06/05 01:25:49;;;;;;;14.07;6.68;;;;;;;;;;5013710;28;20037;-41
2021/06/05 01:28:18;;;;;;;14.02;6.25;;;;;;;;;;5013573;28;20073;-43
2021/06/05 01:30:48;;;;;;;7.85;5.32;;;;;;;;;;5013694;28;20149;-44
2021/06/05 01:33:17;;;;;;;11.02;6.22;;;;;;;;;;5013770;28;20518;-43
2021/06/05 01:35:43;;;;;;;9.68;6.57;;;;;;;;;;5013699;28;20057;-43
2021/06/05 01:38:11;;;;;;;11.30;7.78;;;;;;;;;;5013545;28;20105;-43
2021/06/05 01:40:37;;;;;;;11.70;5.95;;;;;;;;;;5013640;28;20040;-43
2021/06/05 01:43:05;;;;;;;13.20;8.23;;;;;;;;;;5013548;28;20038;-42
2021/06/05 01:45:35;;;;;;;15.70;6.95;;;;;;;;;;5013615;28;20057;-42
2021/06/05 01:48:02;;;;;;;20.02;6.95;;;;;;;;;;5013463;28;20084;-43
2021/06/05 01:50:30;;;;;;;20.83;9.45;;;;;;;;;;5013320;28;20084;-43
2021/06/05 01:52:58;;;;;;;14.13;8.90;;;;;;;;;;5018696;28;20034;-44
2021/06/05 01:55:28;;;;;;;10.20;6.60;;;;;;;;;;5035207;28;20056;-43
2021/06/05 01:57:56;;;;;;;14.15;7.05;;;;;;;;;;5034988;28;20036;-43
2021/06/05 02:00:30;;;;;;;15.98;7.85;;;;;;;;;;5034909;28;20018;-43
2021/06/05 02:02:56;;;;;;;10.95;6.25;;;;;;;;;;5034515;28;20478;-43
2021/06/05 02:05:24;;;;;;;19.05;6.25;;;;;;;;;;5034857;28;20372;-42
2021/06/05 02:07:52;;;;;;;17.05;7.32;;;;;;;;;;5034840;28;20091;-42
2021/06/05 02:10:20;;;;;;;15.65;6.25;;;;;;;;;;5034630;28;20120;-43
2021/06/05 02:12:49;;;;;;;9.13;6.60;;;;;;;;;;5034730;28;20018;-42
2021/06/05 02:15:19;;;;;;;19.95;8.63;;;;;;;;;;5034669;28;20545;-43
2021/06/05 02:17:46;;;;;;;13.73;8.90;;;;;;;;;;5034824;28;20025;-43
2021/06/05 02:20:14;;;;;;;12.32;6.88;;;;;;;;;;5034646;28;20151;-42
2021/06/05 02:22:42;;;;;;;13.70;7.45;;;;;;;;;;5034356;28;20057;-43
2021/06/05 02:25:11;;;;;;;7.88;6.53;;;;;;;;;;5034370;28;20021;-43
2021/06/05 02:27:38;;;;;;;13.02;6.15;;;;;;;;;;5034669;28;20029;-43
2021/06/05 02:30:07;;;;;;;14.13;6.93;;;;;;;;;;5034589;28;20117;-42
2021/06/05 02:32:34;;;;;;;14.50;7.75;;;;;;;;;;5034504;28;20458;-42
2021/06/05 02:35:00;;;;;;;14.70;6.57;;;;;;;;;;5034552;28;20108;-42
2021/06/05 02:37:28;;;;;;;11.00;5.82;;;;;;;;;;5034246;28;20033;-42
2021/06/05 02:39:58;;;;;;;9.95;6.10;;;;;;;;;;5034359;28;20026;-42
2021/06/05 02:42:24;;;;;;;16.38;6.78;;;;;;;;;;5034380;28;20060;-42
2021/06/05 02:44:53;;;;;;;15.02;6.22;;;;;;;;;;5034130;28;20018;-42
2021/06/05 02:47:21;;;;;;;16.95;6.28;;;;;;;;;;5034223;28;20057;-43
2021/06/05 02:49:47;;;;;;;20.73;8.52;;;;;;;;;;5034198;28;20030;-43
2021/06/05 02:52:28;;;;;;;15.00;8.35;;;;;;;;;;5054034;28;20160;-43
2021/06/05 02:54:55;;;;;;;15.82;8.07;;;;;;;;;;5074134;28;20032;-42
2021/06/05 02:57:21;;;;;;;16.35;7.38;;;;;;;;;;5073997;28;20024;-42
2021/06/05 02:59:47;;;;;;;13.30;7.43;;;;;;;;;;5074188;28;20021;-43
2021/06/05 03:02:13;;;;;;;13.55;7.70;;;;;;;;;;5073938;28;20032;-44
2021/06/05 03:04:39;;;;;;;13.95;7.47;;;;;;;;;;5073982;28;20112;-44
2021/06/05 03:07:08;;;;;;;17.17;8.15;;;;;;;;;;5074098;28;20032;-44
2021/06/05 03:09:36;;;;;;;17.23;6.88;;;;;;;;;;5073813;28;20040;-42
2021/06/05 03:12:04;;;;;;;8.55;6.13;;;;;;;;;;5073934;28;20012;-43
2021/06/05 03:14:30;;;;;;;17.00;7.72;;;;;;;;;;5073719;28;20086;-42
2021/06/05 03:16:56;;;;;;;16.20;7.47;;;;;;;;;;5073941;28;20067;-42
2021/06/05 03:19:23;;;;;;;9.15;6.03;;;;;;;;;;5073453;28;20024;-42
2021/06/05 03:21:49;;;;;;;10.70;7.10;;;;;;;;;;5073608;28;20029;-42
2021/06/05 03:24:15;;;;;;;20.75;7.70;;;;;;;;;;5073494;28;20032;-42
2021/06/05 03:26:42;;;;;;;18.88;7.80;;;;;;;;;;5073783;28;20043;-43
2021/06/05 03:29:10;;;;;;;23.83;7.93;;;;;;;;;;5073745;28;20048;-42
2021/06/05 03:31:36;;;;;;;20.50;8.65;;;;;;;;;;5073522;28;20572;-43
2021/06/05 03:34:03;;;;;;;11.65;7.05;;;;;;;;;;5073383;28;20434;-42
2021/06/05 03:36:31;;;;;;;14.32;7.22;;;;;;;;;;5073642;28;20020;-43
2021/06/05 03:38:58;;;;;;;12.77;6.65;;;;;;;;;;5073663;28;20401;-42
2021/06/05 03:41:24;;;;;;;17.58;7.22;;;;;;;;;;5073438;28;20033;-43
2021/06/05 03:43:50;;;;;;;11.82;6.00;;;;;;;;;;5073312;28;20070;-42
2021/06/05 03:46:16;;;;;;;23.98;7.05;;;;;;;;;;5073443;28;20079;-43
2021/06/05 03:48:43;;;;;;;15.90;6.25;;;;;;;;;;5054849;28;20029;-42
2021/06/05 03:51:09;;;;;;;18.50;6.95;;;;;;;;;;5073158;28;20037;-42
2021/06/05 03:53:35;;;;;;;18.35;6.63;;;;;;;;;;5073385;28;20515;-43
2021/06/05 03:56:02;;;;;;;14.30;7.70;;;;;;;;;;5073236;28;20040;-41
2021/06/05 03:58:40;;;;;;;20.85;7.82;;;;;;;;;;5073447;28;20147;-42
2021/06/05 04:01:17;;;;;;;19.55;7.00;;;;;;;;;;5073190;28;20033;-43
2021/06/05 04:03:43;;;;;;;18.52;7.15;;;;;;;;;;5073310;28;20044;-42
2021/06/05 04:06:13;;;;;;;19.80;7.55;;;;;;;;;;5073031;28;20028;-43
2021/06/05 04:08:39;;;;;;;21.73;7.60;;;;;;;;;;5072976;28;20024;-42
2021/06/05 04:11:05;;;;;;;25.13;7.45;;;;;;;;;;5073288;28;20056;-42
2021/06/05 04:13:32;;;;;;;15.85;7.25;;;;;;;;;;5073066;28;20376;-42
2021/06/05 04:15:58;;;;;;;20.30;7.80;;;;;;;;;;5072919;28;20468;-43
2021/06/05 04:18:31;;;;;;;16.13;7.57;;;;;;;;;;5073255;28;20380;-42
2021/06/05 04:20:58;;;;;;;15.50;7.00;;;;;;;;;;5072892;28;20037;-41
2021/06/05 04:23:24;;;;;;;12.27;6.80;;;;;;;;;;5073218;28;20044;-42
2021/06/05 04:25:51;;;;;;;14.98;6.93;;;;;;;;;;5076027;28;20095;-43
2021/06/05 04:28:18;;;;;;;18.27;7.15;;;;;;;;;;5076692;28;20021;-43
2021/06/05 04:30:44;;;;;;;13.98;6.78;;;;;;;;;;5076841;28;20033;-42
2021/06/05 04:33:11;;;;;;;11.10;6.63;;;;;;;;;;5076665;28;20082;-43
2021/06/05 04:35:38;;;;;;;11.10;7.15;;;;;;;;;;5076611;28;20027;-43
2021/06/05 04:38:05;;;;;;;18.02;7.22;;;;;;;;;;5076768;28;20032;-43
2021/06/05 04:40:31;;;;;;;17.42;7.50;;;;;;;;;;5076341;28;20020;-43
2021/06/05 04:42:57;;;;;;;17.88;7.15;;;;;;;;;;5076781;28;20111;-44
2021/06/05 04:45:24;;;;;;;11.02;6.38;;;;;;;;;;5076428;28;20483;-43
2021/06/05 04:47:50;;;;;;;14.27;6.65;;;;;;;;;;5076400;28;20028;-43
2021/06/05 04:50:18;;;;;;;19.48;7.70;;;;;;;;;;5076434;28;20041;-43
2021/06/05 04:52:44;;;;;;;15.60;7.28;;;;;;;;;;5076258;28;20531;-43
2021/06/05 04:55:11;;;;;;;14.35;7.30;;;;;;;;;;5076092;28;20036;-43
2021/06/05 04:57:39;;;;;;;15.63;7.32;;;;;;;;;;5076410;28;20495;-43
2021/06/05 05:00:09;;;;;;;13.48;6.60;;;;;;;;;;5076138;28;20036;-43
2021/06/05 05:02:35;;;;;;;16.00;6.70;;;;;;;;;;5058096;28;20411;-43
2021/06/05 05:05:02;;;;;;;13.32;6.47;;;;;;;;;;5076216;28;20024;-43
2021/06/05 05:07:28;;;;;;;14.65;6.80;;;;;;;;;;5075998;28;20016;-43
2021/06/05 05:09:54;;;;;;;12.70;6.50;;;;;;;;;;5075891;28;20060;-43
2021/06/05 05:12:20;;;;;;;14.95;6.80;;;;;;;;;;5076049;28;20037;-44
2021/06/05 05:14:46;;;;;;;46.25;29.38;;;;;;;;;;5075901;28;20025;-41
2021/06/05 05:17:12;;;;;;;38.38;21.52;;;;;;;;;;5075842;28;20024;-43
2021/06/05 05:19:38;;;;;;;22.15;13.60;;;;;;;;;;5075824;28;20594;-43
2021/06/05 05:22:05;;;;;;;36.70;20.15;;;;;;;;;;5075783;28;20142;-44
2021/06/05 05:24:31;;;;;;;25.08;15.98;;;;;;;;;;5075685;28;20107;-43
2021/06/05 05:26:57;;;;;;;11.15;4.05;;;;;;;;;;5075760;28;20029;-43
2021/06/05 05:29:23;;;;;;;24.30;15.13;;;;;;;;;;5075703;28;20492;-43
2021/06/05 05:31:49;;;;;;;12.52;8.10;;;;;;;;;;5075441;28;20078;-44
2021/06/05 05:34:15;;;;;;;15.23;9.13;;;;;;;;;;5075709;28;20433;-44
2021/06/05 05:36:41;;;;;;;10.38;4.90;;;;;;;;;;5056012;28;20032;-43
2021/06/05 05:39:09;;;;;;;27.45;16.70;;;;;;;;;;5075467;28;20025;-43
2021/06/05 05:41:35;;;;;;;19.55;6.30;;;;;;;;;;5075220;28;20017;-43
2021/06/05 05:44:01;;;;;;;36.72;26.25;;;;;;;;;;5075883;28;20021;-44
2021/06/05 05:46:28;;;;;;;26.70;11.18;;;;;;;;;;5075267;28;20023;-43
2021/06/05 05:48:54;;;;;;;22.23;7.13;;;;;;;;;;5075276;28;20078;-44
2021/06/05 05:51:21;;;;;;;16.35;7.63;;;;;;;;;;5075051;28;20053;-43
2021/06/05 05:53:47;;;;;;;18.20;5.18;;;;;;;;;;5075231;28;20047;-43
2021/06/05 05:56:16;;;;;;;16.85;6.47;;;;;;;;;;5074977;28;20025;-43
2021/06/05 05:58:43;;;;;;;22.75;6.82;;;;;;;;;;5075117;28;20071;-43
2021/06/05 06:01:11;;;;;;;37.50;18.73;;;;;;;;;;5075033;28;20032;-43
2021/06/05 06:03:38;;;;;;;13.52;4.65;;;;;;;;;;5074940;28;20495;-43
2021/06/05 06:06:05;;;;;;;18.77;6.28;;;;;;;;;;5075072;28;20021;-43
2021/06/05 06:08:31;;;;;;;25.25;14.65;;;;;;;;;;5075193;28;20039;-43
2021/06/05 06:10:57;;;;;;;14.43;7.50;;;;;;;;;;5074648;28;20035;-43
2021/06/05 06:13:24;;;;;;;8.88;4.80;;;;;;;;;;5074794;28;20357;-43
2021/06/05 06:15:50;;;;;;;14.13;5.65;;;;;;;;;;5074682;28;20453;-44
2021/06/05 06:18:16;;;;;;;10.27;3.65;;;;;;;;;;5075017;28;20029;-43
2021/06/05 06:20:44;;;;;;;15.82;4.90;;;;;;;;;;5074497;28;20032;-43
2021/06/05 06:23:15;;;;;;;15.57;8.05;;;;;;;;;;5074692;28;20067;-43
2021/06/05 06:25:41;;;;;;;18.58;13.05;;;;;;;;;;5074570;28;20020;-44
2021/06/05 06:28:11;;;;;;;19.10;8.18;;;;;;;;;;5074602;28;20487;-43
2021/06/05 06:30:38;;;;;;;6.43;2.60;;;;;;;;;;5074483;28;20037;-43
2021/06/05 06:33:06;;;;;;;11.13;5.28;;;;;;;;;;5074379;28;20483;-44
2021/06/05 06:35:33;;;;;;;8.73;2.85;;;;;;;;;;5074691;28;20039;-44
2021/06/05 06:37:59;;;;;;;8.77;3.90;;;;;;;;;;5074204;28;20032;-44
2021/06/05 06:40:31;;;;;;;13.68;5.00;;;;;;;;;;5074311;28;20028;-43
2021/06/05 06:42:57;;;;;;;7.40;2.75;;;;;;;;;;5074136;28;20094;-43
2021/06/05 06:45:24;;;;;;;6.95;4.00;;;;;;;;;;5074094;28;20027;-42
2021/06/05 06:47:50;;;;;;;9.82;3.20;;;;;;;;;;5073914;28;20029;-43
2021/06/05 06:50:18;;;;;;;6.60;2.92;;;;;;;;;;5074077;28;20033;-43
2021/06/05 06:52:44;;;;;;;6.45;3.05;;;;;;;;;;5073906;28;20135;-43
2021/06/05 06:55:11;;;;;;;8.40;2.72;;;;;;;;;;5074003;28;20515;-43
2021/06/05 06:57:37;;;;;;;7.78;2.40;;;;;;;;;;5074053;28;20529;-44
2021/06/05 07:00:08;;;;;;;5.95;2.35;;;;;;;;;;5073836;28;20020;-44
2021/06/05 07:02:34;;;;;;;7.07;2.40;;;;;;;;;;5073846;28;20544;-44
2021/06/05 07:05:00;;;;;;;4.97;2.90;;;;;;;;;;5073806;28;20060;-44
2021/06/05 07:07:28;;;;;;;4.28;2.40;;;;;;;;;;5073679;28;20104;-44
2021/06/05 07:09:55;;;;;;;2.42;1.80;;;;;;;;;;5073807;28;20064;-44
2021/06/05 07:12:21;;;;;;;5.78;2.40;;;;;;;;;;5056232;28;20021;-44
2021/06/05 07:14:49;;;;;;;3.70;2.10;;;;;;;;;;5072927;28;20043;-44
2021/06/05 07:17:15;;;;;;;9.55;2.63;;;;;;;;;;5073249;28;20063;-44
2021/06/05 07:19:42;;;;;;;7.68;2.03;;;;;;;;;;5070345;28;20013;-44
2021/06/05 07:22:08;;;;;;;12.05;3.42;;;;;;;;;;5072931;28;20025;-43
2021/06/05 07:24:34;;;;;;;6.13;3.00;;;;;;;;;;5073467;28;20009;-43
2021/06/05 07:27:00;;;;;;;10.13;3.33;;;;;;;;;;5072887;28;20070;-43
2021/06/05 07:29:26;;;;;;;7.68;2.55;;;;;;;;;;5072866;28;20028;-48
2021/06/05 07:31:54;;;;;;;12.80;2.75;;;;;;;;;;5073104;28;20454;-45
2021/06/05 07:34:24;;;;;;;7.72;2.50;;;;;;;;;;5073080;28;20021;-50
2021/06/05 07:37:03;;;;;;;8.38;2.40;;;;;;;;;;5073187;28;20096;-43
2021/06/05 07:39:30;;;;;;;4.90;2.25;;;;;;;;;;5071337;28;20028;-43
2021/06/05 07:41:59;;;;;;;9.88;2.72;;;;;;;;;;5072732;28;20016;-44
2021/06/05 07:44:25;;;;;;;3.92;1.92;;;;;;;;;;5072858;28;20064;-42
2021/06/05 07:46:57;;;;;;;6.13;2.65;;;;;;;;;;5072471;28;20031;-42
2021/06/05 07:49:28;;;;;;;6.82;2.13;;;;;;;;;;5073010;28;20041;-42
2021/06/05 07:51:55;;;;;;;3.05;2.50;;;;;;;;;;5054496;28;20544;-45
2021/06/05 07:54:21;;;;;;;5.78;2.50;;;;;;;;;;5073104;28;20472;-44
2021/06/05 07:56:50;;;;;;;7.10;2.80;;;;;;;;;;5073094;28;20067;-44
2021/06/05 07:59:24;;;;;;;7.88;3.03;;;;;;;;;;5073597;28;20045;-43
2021/06/05 08:01:50;;;;;;;8.52;2.20;;;;;;;;;;5077124;28;20050;-43
2021/06/05 08:04:17;;;;;;;5.35;2.10;;;;;;;;;;5077018;28;20024;-43
2021/06/05 08:06:44;;;;;;;5.90;2.42;;;;;;;;;;5077275;28;20024;-44
2021/06/05 08:09:10;;;;;;;6.45;2.28;;;;;;;;;;5076837;28;20048;-42
2021/06/05 08:11:37;;;;;;;6.30;2.20;;;;;;;;;;5076945;28;20087;-43
2021/06/05 08:14:03;;;;;;;8.00;2.60;;;;;;;;;;5077038;28;20020;-42
2021/06/05 08:16:29;;;;;;;6.50;2.10;;;;;;;;;;5076969;28;20032;-43
2021/06/05 08:18:55;;;;;;;11.65;2.45;;;;;;;;;;5076815;28;20023;-44
2021/06/05 08:21:22;;;;;;;8.80;2.63;;;;;;;;;;5077000;28;20040;-44
2021/06/05 08:23:49;;;;;;;5.43;2.33;;;;;;;;;;5076851;28;20021;-43
2021/06/05 08:26:17;;;;;;;4.72;2.30;;;;;;;;;;5076551;28;20025;-44
2021/06/05 08:28:45;;;;;;;5.20;2.65;;;;;;;;;;5076746;28;20492;-42
2021/06/05 08:31:16;;;;;;;6.13;2.72;;;;;;;;;;5076633;28;20020;-42
2021/06/05 08:33:43;;;;;;;4.00;2.33;;;;;;;;;;5076535;28;20020;-41
2021/06/05 08:36:12;;;;;;;5.75;2.92;;;;;;;;;;5076615;28;20024;-43
2021/06/05 08:38:39;;;;;;;18.48;12.93;;;;;;;;;;5058418;28;20074;-41
2021/06/05 08:41:05;;;;;;;7.50;2.40;;;;;;;;;;5076407;28;20024;-43
2021/06/05 08:43:41;;;;;;;12.30;2.70;;;;;;;;;;5076537;28;20024;-44
2021/06/05 08:46:08;;;;;;;11.52;2.40;;;;;;;;;;5076339;28;20016;-48
2021/06/05 08:48:35;;;;;;;20.60;13.23;;;;;;;;;;5058189;28;20116;-45
2021/06/05 08:51:09;;;;;;;17.58;8.23;;;;;;;;;;5075905;28;20551;-50
2021/06/05 08:53:36;;;;;;;95.45;73.38;;;;;;;;;;5076274;28;20021;-43
2021/06/05 08:56:05;;;;;;;16.25;7.78;;;;;;;;;;5075975;28;20036;-43
2021/06/05 08:58:36;;;;;;;12.32;8.43;;;;;;;;;;5076093;28;20104;-43
2021/06/05 09:01:17;;;;;;;36.22;21.02;;;;;;;;;;5076115;28;20104;-41
2021/06/05 09:03:44;;;;;;;53.42;32.97;;;;;;;;;;5075849;28;20029;-42
2021/06/05 09:06:18;;;;;;;29.20;15.43;;;;;;;;;;5075911;28;20024;-46
2021/06/05 09:08:45;;;;;;;14.60;10.00;;;;;;;;;;5075992;28;20024;-43
2021/06/05 09:11:12;;;;;;;6.53;3.17;;;;;;;;;;5075549;28;20427;-45
2021/06/05 09:13:39;;;;;;;9.82;2.50;;;;;;;;;;5075790;28;20455;-46
2021/06/05 09:16:20;;;;;;;47.03;27.92;;;;;;;;;;5075626;28;20024;-41
2021/06/05 09:18:50;;;;;;;39.25;22.17;;;;;;;;;;5075592;28;20025;-43
2021/06/05 09:21:25;;;;;;;25.45;16.75;;;;;;;;;;5075718;28;20024;-44
2021/06/05 09:23:52;;;;;;;4.28;2.50;;;;;;;;;;5075656;28;20025;-43
2021/06/05 09:26:18;;;;;;;3.15;1.85;;;;;;;;;;5075815;28;20487;-44
2021/06/05 09:28:44;;;;;;;3.55;2.38;;;;;;;;;;5075626;28;20067;-44
2021/06/05 09:31:27;;;;;;;11.43;4.70;;;;;;;;;;5075484;28;20070;-42
2021/06/05 09:33:55;;;;;;;36.45;9.80;;;;;;;;;;5075515;28;20103;-43
2021/06/05 09:36:32;;;;;;;17.77;4.60;;;;;;;;;;5075562;28;20411;-44
2021/06/05 09:38:58;;;;;;;4.88;2.85;;;;;;;;;;5075524;28;20041;-43
2021/06/05 09:41:28;;;;;;;22.65;7.38;;;;;;;;;;5075180;28;20472;-42
2021/06/05 09:43:54;;;;;;;37.43;10.60;;;;;;;;;;5075177;28;20441;-44
2021/06/05 09:46:20;;;;;;;16.27;6.75;;;;;;;;;;5075175;28;21381;-44
2021/06/05 09:48:47;;;;;;;6.63;2.53;;;;;;;;;;5074919;28;20374;-44
2021/06/05 09:51:32;;;;;;;20.70;7.07;;;;;;;;;;5074207;28;20080;-44
2021/06/05 09:53:58;;;;;;;9.50;4.50;;;;;;;;;;5074648;28;20361;-41
2021/06/05 09:56:26;;;;;;;11.75;4.68;;;;;;;;;;5074635;28;20534;-44
2021/06/05 09:59:01;;;;;;;5.90;3.67;;;;;;;;;;5074970;28;20036;-43
2021/06/05 10:01:28;;;;;;;8.15;3.25;;;;;;;;;;5074849;28;20040;-43
2021/06/05 10:03:56;;;;;;;8.68;3.38;;;;;;;;;;5074705;28;20021;-43
2021/06/05 10:06:41;;;;;;;3.83;2.30;;;;;;;;;;5074725;28;20027;-44
2021/06/05 10:09:25;;;;;;;8.25;3.03;;;;;;;;;;5074544;28;20788;-43
2021/06/05 10:11:54;;;;;;;7.93;2.28;;;;;;;;;;5074755;28;20032;-43
2021/06/05 10:14:22;;;;;;;4.32;2.30;;;;;;;;;;5074589;28;20481;-44
2021/06/05 10:16:54;;;;;;;7.15;2.63;;;;;;;;;;5074551;28;20388;-43
2021/06/05 10:19:22;;;;;;;9.43;2.42;;;;;;;;;;5074247;28;20496;-44
2021/06/05 10:21:49;;;;;;;4.65;2.10;;;;;;;;;;5073778;28;20029;-44
2021/06/05 10:24:18;;;;;;;6.82;2.40;;;;;;;;;;5074576;28;20028;-43
2021/06/05 10:26:45;;;;;;;5.47;2.20;;;;;;;;;;5074133;28;20099;-44
2021/06/05 10:29:34;;;;;;;7.13;2.28;;;;;;;;;;5074261;28;20438;-44
2021/06/05 10:32:02;;;;;;;4.63;2.60;;;;;;;;;;5074314;28;20046;-44
2021/06/05 10:34:28;;;;;;;4.28;2.40;;;;;;;;;;5073965;28;20028;-44
2021/06/05 10:36:55;;;;;;;4.68;2.10;;;;;;;;;;5073754;28;20388;-44
2021/06/05 10:39:25;;;;;;;4.85;3.70;;;;;;;;;;5074214;28;20099;-43
2021/06/05 10:42:06;;;;;;;4.47;3.67;;;;;;;;;;5074290;28;20021;-44
2021/06/05 10:44:32;;;;;;;19.70;14.52;;;;;;;;;;5074075;28;20030;-43
2021/06/05 10:47:04;;;;;;;13.52;7.97;;;;;;;;;;5073930;28;20051;-44
2021/06/05 10:49:42;;;;;;;46.35;30.15;;;;;;;;;;5074200;28;20096;-44
2021/06/05 10:52:17;;;;;;;21.80;15.32;;;;;;;;;;5073714;28;20054;-43
2021/06/05 10:54:54;;;;;;;17.38;10.23;;;;;;;;;;5073744;28;20028;-42
2021/06/05 10:57:20;;;;;;;12.20;2.75;;;;;;;;;;5073545;28;20104;-42
2021/06/05 10:59:52;;;;;;;8.68;2.75;;;;;;;;;;5073721;28;20468;-43
2021/06/05 11:02:35;;;;;;;6.28;3.90;;;;;;;;;;5073589;28;20035;-43
2021/06/05 11:05:03;;;;;;;4.18;2.17;;;;;;;;;;5073695;28;20094;-43
2021/06/05 11:07:33;;;;;;;6.93;2.78;;;;;;;;;;5073795;28;20078;-43
2021/06/05 11:10:00;;;;;;;8.35;3.40;;;;;;;;;;5073271;28;20039;-43
2021/06/05 11:12:26;;;;;;;7.82;4.63;;;;;;;;;;5073718;28;20024;-44
2021/06/05 11:14:54;;;;;;;10.93;2.00;;;;;;;;;;5073656;28;20025;-44
2021/06/05 11:17:39;;;;;;;6.78;2.83;;;;;;;;;;5073790;28;20016;-43
2021/06/05 11:20:06;;;;;;;30.55;17.52;;;;;;;;;;5073496;28;20025;-44
2021/06/05 11:22:51;;;;;;;7.68;3.40;;;;;;;;;;5073743;28;20381;-45
2021/06/05 11:25:17;;;;;;;4.32;2.58;;;;;;;;;;5073614;28;20029;-45
2021/06/05 11:27:43;;;;;;;21.58;10.20;;;;;;;;;;5073152;28;20039;-44
2021/06/05 11:30:21;;;;;;;6.18;2.92;;;;;;;;;;5072749;28;20039;-42
2021/06/05 11:33:02;;;;;;;8.60;5.45;;;;;;;;;;5072767;28;20021;-43
2021/06/05 11:35:37;;;;;;;23.48;10.43;;;;;;;;;;5072139;28;20024;-44
2021/06/05 11:38:19;;;;;;;5.68;2.92;;;;;;;;;;5072799;28;20016;-43
2021/06/05 11:40:51;;;;;;;6.82;4.13;;;;;;;;;;5071990;28;20021;-44
2021/06/05 11:43:21;;;;;;;2.83;2.08;;;;;;;;;;5072578;28;20366;-44
2021/06/05 11:45:57;;;;;;;4.95;2.20;;;;;;;;;;5072749;28;20033;-44
2021/06/05 11:48:41;;;;;;;2.78;1.80;;;;;;;;;;5072811;28;20037;-44
2021/06/05 11:51:22;;;;;;;8.00;3.20;;;;;;;;;;5072109;28;20580;-42
2021/06/05 11:53:56;;;;;;;4.50;1.80;;;;;;;;;;5072661;28;20047;-42
2021/06/05 11:56:34;;;;;;;7.50;3.45;;;;;;;;;;5072646;28;20017;-42
2021/06/05 11:59:17;;;;;;;9.48;3.45;;;;;;;;;;5071252;28;20013;-44
2021/06/05 12:01:43;;;;;;;5.35;2.33;;;;;;;;;;5071762;28;20032;-44
2021/06/05 12:04:10;;;;;;;7.43;2.67;;;;;;;;;;5073045;28;20112;-44
2021/06/05 12:06:46;;;;;;;3.65;1.95;;;;;;;;;;5072995;28;20119;-43
2021/06/05 12:09:20;;;;;;;6.15;2.85;;;;;;;;;;5073222;28;20087;-42
2021/06/05 12:11:56;;;;;;;8.23;3.03;;;;;;;;;;5073099;28;20074;-42
2021/06/05 12:14:26;;;;;;;13.68;7.25;;;;;;;;;;5072960;28;20028;-47
2021/06/05 12:16:55;;;;;;;16.70;12.63;;;;;;;;;;5072866;28;20119;-42
2021/06/05 12:19:47;;;;;;;9.68;2.45;;;;;;;;;;5072431;28;20050;-44
2021/06/05 12:22:18;;;;;;;17.88;10.45;;;;;;;;;;5067943;28;20397;-44
2021/06/05 12:24:48;;;;;;;7.78;3.90;;;;;;;;;;5072938;28;20051;-42
2021/06/05 12:27:26;;;;;;;6.68;2.80;;;;;;;;;;5072760;28;20020;-43
2021/06/05 12:29:53;;;;;;;9.93;2.60;;;;;;;;;;5072884;28;20048;-42
2021/06/05 12:32:23;;;;;;;5.80;2.20;;;;;;;;;;5073221;28;20024;-42
2021/06/05 12:34:50;;;;;;;9.32;3.00;;;;;;;;;;5072680;28;20537;-44
2021/06/05 12:37:19;;;;;;;16.40;5.40;;;;;;;;;;5073009;28;20392;-45
2021/06/05 12:39:47;;;;;;;9.35;4.20;;;;;;;;;;5072863;28;20030;-45
2021/06/05 12:42:18;;;;;;;10.82;2.67;;;;;;;;;;5072609;28;20025;-43
2021/06/05 12:44:45;;;;;;;6.53;2.10;;;;;;;;;;5072810;28;20029;-45
2021/06/05 12:47:14;;;;;;;21.55;3.17;;;;;;;;;;5076144;28;20019;-45
2021/06/05 12:49:43;;;;;;;9.48;2.60;;;;;;;;;;5069805;28;20162;-44
2021/06/05 12:52:13;;;;;;;6.30;2.10;;;;;;;;;;5049697;28;20052;-43
2021/06/05 12:54:41;;;;;;;20.98;3.28;;;;;;;;;;5049108;28;20036;-43
2021/06/05 12:57:22;;;;;;;13.10;3.13;;;;;;;;;;5048799;28;20033;-44
2021/06/05 12:59:49;;;;;;;19.75;3.10;;;;;;;;;;5048834;28;20154;-44
2021/06/05 13:02:21;;;;;;;6.20;2.50;;;;;;;;;;5048793;28;20068;-43
2021/06/05 13:04:47;;;;;;;6.60;2.22;;;;;;;;;;5049171;28;21534;-43
2021/06/05 13:07:13;;;;;;;11.80;5.20;;;;;;;;;;5048955;28;20528;-43
2021/06/05 13:09:44;;;;;;;10.45;2.20;;;;;;;;;;5048715;28;20039;-44
2021/06/05 13:12:19;;;;;;;39.05;4.75;;;;;;;;;;5048530;28;20021;-44
2021/06/05 13:14:45;;;;;;;12.82;4.97;;;;;;;;;;5048378;28;20674;-42
2021/06/05 13:17:31;;;;;;;21.52;3.67;;;;;;;;;;5048969;28;20073;-43
2021/06/05 13:20:07;;;;;;;26.70;6.45;;;;;;;;;;5048278;28;20024;-43
2021/06/05 13:22:33;;;;;;;5.10;2.40;;;;;;;;;;5048467;28;20063;-42
2021/06/05 13:25:11;;;;;;;43.50;32.60;;;;;;;;;;5048944;28;20020;-43
2021/06/05 13:27:55;;;;;;;14.65;7.05;;;;;;;;;;5048252;28;20028;-43
2021/06/05 13:30:24;;;;;;;8.65;3.50;;;;;;;;;;5048330;28;20047;-43
2021/06/05 13:32:54;;;;;;;13.45;2.90;;;;;;;;;;5048350;28;20020;-43
2021/06/05 13:35:34;;;;;;;36.33;11.37;;;;;;;;;;5048811;28;20024;-43
2021/06/05 13:38:01;;;;;;;8.80;2.97;;;;;;;;;;5048227;28;20136;-43
2021/06/05 13:40:28;;;;;;;21.98;4.85;;;;;;;;;;5048355;28;21374;-43
2021/06/05 13:42:54;;;;;;;38.67;5.05;;;;;;;;;;5047995;28;20500;-43
2021/06/05 13:45:31;;;;;;;10.45;4.63;;;;;;;;;;5047922;28;20036;-43
2021/06/05 13:47:58;;;;;;;3.72;1.67;;;;;;;;;;5048242;28;20081;-42
2021/06/05 13:50:25;;;;;;;5.72;2.28;;;;;;;;;;5046749;28;20098;-44
2021/06/05 13:52:52;;;;;;;6.65;2.50;;;;;;;;;;5029382;28;20048;-43
2021/06/05 13:55:23;;;;;;;18.70;5.82;;;;;;;;;;5048107;28;20087;-43
2021/06/05 13:57:49;;;;;;;;;;;;;;;;;;5047282;28;20202;-41
2021/06/05 14:00:15;;;;;;;10.32;2.53;;;;;;;;;;5048057;28;21073;-44
2021/06/05 14:02:42;;;;;;;30.85;8.95;;;;;;;;;;5047982;28;20025;-43
2021/06/05 14:05:08;;;;;;;12.35;3.22;;;;;;;;;;5047617;28;20020;-43
2021/06/05 14:07:34;;;;;;;7.55;2.78;;;;;;;;;;5047279;28;20028;-43
2021/06/05 14:10:00;;;;;;;4.78;2.00;;;;;;;;;;5047804;28;21023;-43
2021/06/05 14:12:28;;;;;;;17.48;8.75;;;;;;;;;;5047269;28;20342;-43
2021/06/05 14:14:55;;;;;;;36.78;9.68;;;;;;;;;;5047898;28;20111;-44
2021/06/05 14:17:22;;;;;;;10.70;2.72;;;;;;;;;;5047252;28;20028;-42
2021/06/05 14:19:48;;;;;;;19.45;4.82;;;;;;;;;;5047537;28;20052;-44
2021/06/05 14:22:15;;;;;;;11.00;3.42;;;;;;;;;;5047327;28;20043;-43
2021/06/05 14:24:41;;;;;;;8.93;2.72;;;;;;;;;;5047278;28;20044;-44
2021/06/05 14:27:08;;;;;;;8.65;2.72;;;;;;;;;;5047008;28;20020;-43
2021/06/05 14:29:34;;;;;;;5.15;2.35;;;;;;;;;;5047077;28;20117;-42
2021/06/05 14:32:00;;;;;;;20.38;8.27;;;;;;;;;;5046793;28;20052;-43
2021/06/05 14:34:26;;;;;;;6.05;2.90;;;;;;;;;;5046961;28;20036;-43
2021/06/05 14:36:53;;;;;;;7.07;2.50;;;;;;;;;;5047322;28;20051;-43
2021/06/05 14:39:21;;;;;;;6.13;2.45;;;;;;;;;;5046658;28;20040;-43
2021/06/05 14:41:57;;;;;;;2.40;1.85;;;;;;;;;;5047207;28;20051;-43
2021/06/05 14:44:25;;;;;;;9.55;3.95;;;;;;;;;;5046677;28;20055;-43